Time;durP1;ratioP1;P1;durP2;ratioP2;P2;SDS_P1;SDS_P2;PMS_P1;PMS_P2;Temp;Humidity;BMP_temperature;BMP_pressure;BME280_temperature;BME280_humidity;BME280_pressure;Samples;Min_cycle;Max_cycle;Signal;HPM_P1;HPM_P2
2023/08/19 00:00:15;;;;;;;23.85;15.23;;;;;;;;;;4950818;28;20124;-58
2023/08/19 00:02:44;;;;;;;23.10;15.00;;;;;;;;;;4951196;28;20399;-59
2023/08/19 00:05:11;;;;;;;26.92;16.05;;;;;;;;;;4949484;28;20031;-59
2023/08/19 00:07:37;;;;;;;22.15;15.38;;;;;;;;;;4951101;28;20038;-59
2023/08/19 00:10:04;;;;;;;24.55;16.60;;;;;;;;;;4951153;28;20106;-61
2023/08/19 00:12:30;;;;;;;22.02;14.80;;;;;;;;;;4950827;28;20036;-58
2023/08/19 00:14:56;;;;;;;25.05;16.35;;;;;;;;;;4949411;28;20032;-57
2023/08/19 00:17:23;;;;;;;23.48;15.48;;;;;;;;;;4950703;28;20032;-59
2023/08/19 00:19:49;;;;;;;23.80;15.10;;;;;;;;;;4950771;28;20035;-59
2023/08/19 00:22:15;;;;;;;25.80;15.48;;;;;;;;;;4951822;28;20099;-59
2023/08/19 00:24:41;;;;;;;22.88;15.85;;;;;;;;;;4950662;28;20541;-59
2023/08/19 00:27:07;;;;;;;23.65;15.43;;;;;;;;;;4950717;28;20372;-59
2023/08/19 00:29:33;;;;;;;25.58;15.30;;;;;;;;;;4950659;28;20019;-58
2023/08/19 00:31:59;;;;;;;23.90;15.57;;;;;;;;;;4951461;28;20023;-59
2023/08/19 00:34:25;;;;;;;22.58;15.07;;;;;;;;;;4950312;28;20442;-57
2023/08/19 00:36:51;;;;;;;24.42;15.70;;;;;;;;;;4950541;28;20062;-59
2023/08/19 00:39:17;;;;;;;22.92;15.25;;;;;;;;;;5049512;28;20472;-58
2023/08/19 00:41:45;;;;;;;26.35;15.13;;;;;;;;;;5049842;28;20039;-59
2023/08/19 00:44:11;;;;;;;23.40;14.02;;;;;;;;;;5049316;28;20020;-59
2023/08/19 00:46:37;;;;;;;26.63;14.35;;;;;;;;;;4951669;28;20446;-59
2023/08/19 00:49:04;;;;;;;23.95;14.45;;;;;;;;;;4969865;28;20467;-59
2023/08/19 00:51:30;;;;;;;23.48;15.07;;;;;;;;;;4969010;28;20035;-58
2023/08/19 00:53:56;;;;;;;21.17;13.25;;;;;;;;;;4969582;28;20108;-57
2023/08/19 00:56:22;;;;;;;22.20;14.20;;;;;;;;;;4969467;28;20035;-59
2023/08/19 00:58:49;;;;;;;24.35;14.10;;;;;;;;;;4969717;28;20054;-59
2023/08/19 01:01:15;;;;;;;22.30;13.10;;;;;;;;;;4969666;28;20023;-57
2023/08/19 01:03:41;;;;;;;21.88;13.27;;;;;;;;;;4969584;28;20023;-59
2023/08/19 01:06:13;;;;;;;20.65;13.02;;;;;;;;;;4998964;28;20390;-59
2023/08/19 01:08:43;;;;;;;20.65;13.63;;;;;;;;;;4991647;28;20108;-59
2023/08/19 01:11:28;;;;;;;23.27;13.68;;;;;;;;;;4969571;28;20031;-59
2023/08/19 01:13:59;;;;;;;22.05;12.65;;;;;;;;;;4969133;28;20031;-59
2023/08/19 01:16:27;;;;;;;20.75;12.63;;;;;;;;;;4968158;28;20172;-59
2023/08/19 01:18:54;;;;;;;20.33;12.20;;;;;;;;;;4969429;28;20513;-59
2023/08/19 01:21:20;;;;;;;21.92;13.82;;;;;;;;;;4969596;28;20557;-59
2023/08/19 01:23:48;;;;;;;24.00;13.32;;;;;;;;;;4969411;28;20039;-59
2023/08/19 01:26:14;;;;;;;20.92;12.57;;;;;;;;;;4969241;28;20035;-56
2023/08/19 01:28:40;;;;;;;22.77;13.23;;;;;;;;;;4968068;28;20023;-59
2023/08/19 01:31:06;;;;;;;21.60;12.13;;;;;;;;;;4969717;28;20035;-59
2023/08/19 01:33:32;;;;;;;20.20;11.55;;;;;;;;;;4968093;28;20059;-56
2023/08/19 01:36:17;;;;;;;19.13;11.73;;;;;;;;;;4953371;28;20059;-59
2023/08/19 01:38:46;;;;;;;17.98;10.82;;;;;;;;;;4950794;28;20047;-59
2023/08/19 01:41:13;;;;;;;24.55;10.70;;;;;;;;;;4950598;28;20034;-59
2023/08/19 01:43:40;;;;;;;21.67;11.93;;;;;;;;;;4950327;28;20027;-59
2023/08/19 01:46:06;;;;;;;24.95;12.02;;;;;;;;;;4949776;28;20270;-59
2023/08/19 01:48:32;;;;;;;23.45;12.13;;;;;;;;;;4949964;28;20126;-57
2023/08/19 01:50:58;;;;;;;21.67;11.65;;;;;;;;;;4952182;28;20109;-59
2023/08/19 01:53:24;;;;;;;21.42;11.43;;;;;;;;;;4953220;28;20433;-56
2023/08/19 01:55:50;;;;;;;20.52;11.80;;;;;;;;;;4953096;28;20039;-59
2023/08/19 01:58:16;;;;;;;19.88;12.02;;;;;;;;;;4953314;28;20076;-59
2023/08/19 02:00:42;;;;;;;20.50;12.40;;;;;;;;;;5006225;28;20021;-57
2023/08/19 02:03:08;;;;;;;20.95;11.68;;;;;;;;;;5054531;28;20342;-57
2023/08/19 02:05:34;;;;;;;20.17;11.65;;;;;;;;;;4976532;28;20039;-59
2023/08/19 02:08:00;;;;;;;22.67;11.77;;;;;;;;;;4972089;28;20046;-59
2023/08/19 02:10:26;;;;;;;20.45;11.15;;;;;;;;;;4972192;28;20134;-58
2023/08/19 02:12:52;;;;;;;23.20;11.77;;;;;;;;;;4971876;28;20058;-59
2023/08/19 02:15:18;;;;;;;23.00;11.70;;;;;;;;;;4971624;28;20129;-59
2023/08/19 02:17:44;;;;;;;20.63;11.65;;;;;;;;;;4972004;28;20035;-58
2023/08/19 02:20:10;;;;;;;19.52;11.38;;;;;;;;;;4972024;28;20040;-59
2023/08/19 02:22:37;;;;;;;23.85;12.30;;;;;;;;;;4970565;28;20444;-58
2023/08/19 02:25:03;;;;;;;19.95;11.13;;;;;;;;;;4971566;28;20035;-59
2023/08/19 02:27:29;;;;;;;24.35;12.75;;;;;;;;;;4971710;28;20073;-59
2023/08/19 02:29:55;;;;;;;25.40;11.93;;;;;;;;;;4971753;28;20113;-59
2023/08/19 02:32:21;;;;;;;23.20;12.05;;;;;;;;;;4962611;28;20118;-59
2023/08/19 02:34:47;;;;;;;21.23;11.65;;;;;;;;;;4952213;28;20511;-59
2023/08/19 02:37:14;;;;;;;21.70;12.10;;;;;;;;;;4952372;29;20059;-59
2023/08/19 02:39:40;;;;;;;22.88;12.93;;;;;;;;;;4952450;28;20690;-57
2023/08/19 02:42:06;;;;;;;22.80;12.70;;;;;;;;;;4952474;28;20144;-59
2023/08/19 02:44:32;;;;;;;21.40;12.18;;;;;;;;;;5051962;28;20028;-59
2023/08/19 02:46:58;;;;;;;22.30;12.55;;;;;;;;;;5051524;28;20038;-58
2023/08/19 02:49:24;;;;;;;21.52;12.73;;;;;;;;;;4952303;28;20054;-59
2023/08/19 02:51:50;;;;;;;22.15;11.82;;;;;;;;;;4952139;28;20031;-59
2023/08/19 02:54:16;;;;;;;21.13;12.55;;;;;;;;;;4951963;28;20035;-59
2023/08/19 02:56:42;;;;;;;20.15;11.73;;;;;;;;;;5051558;28;20042;-58
2023/08/19 02:59:08;;;;;;;21.50;12.73;;;;;;;;;;5051828;28;20421;-59
2023/08/19 03:01:34;;;;;;;20.90;11.85;;;;;;;;;;4952042;28;20019;-59
2023/08/19 03:04:00;;;;;;;23.33;12.80;;;;;;;;;;4970059;28;20038;-61
2023/08/19 03:06:26;;;;;;;24.10;12.88;;;;;;;;;;4970910;28;20034;-59
2023/08/19 03:08:53;;;;;;;22.13;12.23;;;;;;;;;;4971266;28;20113;-58
2023/08/19 03:11:19;;;;;;;23.17;12.95;;;;;;;;;;4971447;28;20371;-58
2023/08/19 03:13:44;;;;;;;26.02;13.20;;;;;;;;;;4971043;28;20058;-59
2023/08/19 03:16:10;;;;;;;21.27;11.43;;;;;;;;;;4970790;28;20372;-59
2023/08/19 03:18:36;;;;;;;26.50;13.65;;;;;;;;;;4971209;28;20054;-59
2023/08/19 03:21:02;;;;;;;22.38;12.07;;;;;;;;;;4969246;28;20035;-59
2023/08/19 03:23:28;;;;;;;22.00;11.82;;;;;;;;;;4971084;28;20486;-59
2023/08/19 03:25:56;;;;;;;24.85;13.43;;;;;;;;;;4970702;28;20106;-59
2023/08/19 03:28:22;;;;;;;21.55;13.15;;;;;;;;;;4971193;28;20030;-58
2023/08/19 03:30:48;;;;;;;24.48;12.48;;;;;;;;;;4969508;28;20325;-59
2023/08/19 03:33:14;;;;;;;22.42;11.88;;;;;;;;;;4969021;28;20034;-59
2023/08/19 03:35:40;;;;;;;22.73;12.23;;;;;;;;;;4969908;28;20114;-59
2023/08/19 03:38:06;;;;;;;21.13;11.88;;;;;;;;;;4969729;28;20109;-57
2023/08/19 03:40:32;;;;;;;21.40;12.55;;;;;;;;;;4969651;28;20126;-58
2023/08/19 03:42:58;;;;;;;22.27;12.60;;;;;;;;;;4970748;28;20023;-59
2023/08/19 03:45:24;;;;;;;27.20;12.65;;;;;;;;;;4970903;28;20464;-59
2023/08/19 03:47:50;;;;;;;21.90;12.50;;;;;;;;;;4970667;28;20035;-59
2023/08/19 03:50:16;;;;;;;20.10;12.10;;;;;;;;;;4970520;28;20031;-59
2023/08/19 03:52:42;;;;;;;21.80;12.93;;;;;;;;;;4970594;28;20471;-59
2023/08/19 03:55:08;;;;;;;19.30;11.95;;;;;;;;;;4970460;28;20097;-59
2023/08/19 03:57:34;;;;;;;22.75;13.27;;;;;;;;;;4968993;28;20031;-59
2023/08/19 04:00:00;;;;;;;22.27;14.07;;;;;;;;;;4970612;28;20038;-59
2023/08/19 04:02:26;;;;;;;20.05;12.15;;;;;;;;;;4970547;28;20027;-59
2023/08/19 04:04:59;;;;;;;23.83;12.65;;;;;;;;;;4950874;28;20039;-58
2023/08/19 04:07:25;;;;;;;21.33;13.13;;;;;;;;;;4951052;28;20031;-59
2023/08/19 04:09:51;;;;;;;25.13;12.98;;;;;;;;;;4951210;28;20038;-57
2023/08/19 04:12:17;;;;;;;21.45;13.48;;;;;;;;;;4950361;28;20031;-59
2023/08/19 04:14:43;;;;;;;21.30;12.15;;;;;;;;;;4952203;28;20019;-57
2023/08/19 04:17:09;;;;;;;24.50;13.10;;;;;;;;;;5063015;28;20039;-58
2023/08/19 04:19:36;;;;;;;23.98;13.00;;;;;;;;;;4954797;28;20020;-57
2023/08/19 04:22:02;;;;;;;21.70;12.70;;;;;;;;;;4951182;28;20030;-58
2023/08/19 04:24:28;;;;;;;26.30;13.18;;;;;;;;;;4950569;28;20031;-59
2023/08/19 04:26:54;;;;;;;19.70;11.48;;;;;;;;;;4950798;28;20100;-58
2023/08/19 04:29:20;;;;;;;20.65;11.80;;;;;;;;;;4950820;28;20475;-59
2023/08/19 04:31:46;;;;;;;19.67;12.00;;;;;;;;;;4953521;28;20031;-57
2023/08/19 04:34:12;;;;;;;27.65;12.55;;;;;;;;;;4969275;28;20026;-59
2023/08/19 04:36:38;;;;;;;20.58;11.13;;;;;;;;;;4969823;28;20035;-59
2023/08/19 04:39:07;;;;;;;21.10;12.50;;;;;;;;;;4969910;28;20027;-58
2023/08/19 04:41:34;;;;;;;20.02;11.40;;;;;;;;;;4970032;28;20548;-58
2023/08/19 04:44:00;;;;;;;22.17;11.98;;;;;;;;;;4969775;28;20072;-59
2023/08/19 04:46:26;;;;;;;21.33;11.40;;;;;;;;;;4969762;28;20092;-56
2023/08/19 04:48:52;;;;;;;21.58;11.05;;;;;;;;;;4959089;28;20066;-59
2023/08/19 04:51:18;;;;;;;19.45;11.68;;;;;;;;;;4950733;28;20023;-58
2023/08/19 04:53:44;;;;;;;21.52;11.80;;;;;;;;;;4950287;28;20114;-58
2023/08/19 04:56:10;;;;;;;20.02;11.32;;;;;;;;;;4950137;28;20550;-59
2023/08/19 04:58:36;;;;;;;19.17;10.95;;;;;;;;;;4950575;28;20027;-59
2023/08/19 05:01:02;;;;;;;20.77;11.25;;;;;;;;;;4950232;28;20031;-59
2023/08/19 05:03:28;;;;;;;21.38;10.80;;;;;;;;;;4951406;28;20081;-58
2023/08/19 05:05:54;;;;;;;20.40;11.05;;;;;;;;;;4950075;28;20050;-57
2023/08/19 05:08:20;;;;;;;23.40;10.68;;;;;;;;;;4950296;28;20050;-59
2023/08/19 05:10:46;;;;;;;20.33;10.48;;;;;;;;;;5049751;28;20031;-58
2023/08/19 05:13:12;;;;;;;21.58;11.35;;;;;;;;;;4950501;28;20499;-58
2023/08/19 05:15:38;;;;;;;19.77;10.70;;;;;;;;;;4950367;28;20110;-59
2023/08/19 05:18:05;;;;;;;22.00;11.93;;;;;;;;;;5049993;28;20024;-61
2023/08/19 05:20:31;;;;;;;17.45;9.98;;;;;;;;;;4950552;28;20031;-59
2023/08/19 05:22:57;;;;;;;18.20;9.55;;;;;;;;;;4950732;28;20023;-59
2023/08/19 05:25:23;;;;;;;20.75;9.93;;;;;;;;;;5052489;28;20531;-59
2023/08/19 05:27:49;;;;;;;18.73;9.85;;;;;;;;;;4953726;28;20028;-58
2023/08/19 05:30:15;;;;;;;21.13;10.18;;;;;;;;;;4953700;28;20031;-59
2023/08/19 05:32:41;;;;;;;17.80;9.25;;;;;;;;;;4970807;28;20019;-59
2023/08/19 05:35:07;;;;;;;18.45;9.55;;;;;;;;;;4972478;28;20038;-58
2023/08/19 05:37:33;;;;;;;19.15;10.38;;;;;;;;;;4972745;28;20031;-58
2023/08/19 05:39:59;;;;;;;18.75;9.68;;;;;;;;;;4973055;28;20069;-59
2023/08/19 05:42:25;;;;;;;18.58;9.20;;;;;;;;;;4973080;28;20026;-59
2023/08/19 05:44:51;;;;;;;19.02;9.23;;;;;;;;;;4971174;28;20034;-61
2023/08/19 05:47:17;;;;;;;19.83;8.88;;;;;;;;;;4972708;28;20110;-59
2023/08/19 05:49:43;;;;;;;19.00;9.38;;;;;;;;;;4972863;28;20031;-59
2023/08/19 05:52:09;;;;;;;18.58;9.82;;;;;;;;;;4972620;28;20102;-59
2023/08/19 05:54:35;;;;;;;19.92;9.40;;;;;;;;;;4971689;28;20475;-59
2023/08/19 05:57:01;;;;;;;18.98;8.02;;;;;;;;;;4973507;28;20037;-59
2023/08/19 05:59:27;;;;;;;19.00;8.70;;;;;;;;;;4972243;28;20030;-59
2023/08/19 06:01:53;;;;;;;18.13;8.52;;;;;;;;;;4970825;28;20049;-59
2023/08/19 06:04:19;;;;;;;17.63;9.38;;;;;;;;;;4972300;28;20497;-59
2023/08/19 06:06:45;;;;;;;18.27;9.00;;;;;;;;;;4972115;28;20041;-58
2023/08/19 06:09:11;;;;;;;17.27;9.15;;;;;;;;;;4972430;28;20023;-59
2023/08/19 06:11:47;;;;;;;17.40;9.48;;;;;;;;;;4972094;28;20022;-59
2023/08/19 06:14:13;;;;;;;20.35;8.73;;;;;;;;;;4970657;28;20031;-59
2023/08/19 06:16:40;;;;;;;19.38;8.85;;;;;;;;;;4972069;28;20100;-59
2023/08/19 06:19:06;;;;;;;16.92;9.02;;;;;;;;;;4995292;28;20033;-59
2023/08/19 06:21:32;;;;;;;18.58;9.30;;;;;;;;;;5019497;28;20034;-58
2023/08/19 06:23:58;;;;;;;17.58;8.80;;;;;;;;;;4952663;28;20129;-58
2023/08/19 06:26:25;;;;;;;18.65;10.35;;;;;;;;;;5011838;28;20392;-59
2023/08/19 06:28:52;;;;;;;21.90;9.63;;;;;;;;;;5053199;28;20025;-56
2023/08/19 06:31:18;;;;;;;16.98;8.65;;;;;;;;;;4952933;28;20035;-57
2023/08/19 06:33:44;;;;;;;18.48;9.02;;;;;;;;;;4960633;28;20116;-60
2023/08/19 06:36:15;;;;;;;21.30;9.30;;;;;;;;;;5052577;28;20029;-58
2023/08/19 06:38:42;;;;;;;18.70;9.70;;;;;;;;;;5053580;28;20021;-58
2023/08/19 06:41:11;;;;;;;18.25;9.27;;;;;;;;;;5053501;28;20029;-57
2023/08/19 06:43:38;;;;;;;22.98;9.48;;;;;;;;;;5053469;28;20346;-61
2023/08/19 06:46:05;;;;;;;17.75;9.05;;;;;;;;;;5052994;28;20025;-55
2023/08/19 06:48:32;;;;;;;16.88;9.40;;;;;;;;;;5053295;28;20100;-58
2023/08/19 06:50:58;;;;;;;18.27;8.75;;;;;;;;;;5036232;28;20027;-55
2023/08/19 06:53:24;;;;;;;21.25;10.52;;;;;;;;;;4952068;28;20031;-59
2023/08/19 06:55:59;;;;;;;18.48;9.00;;;;;;;;;;4951667;28;20538;-59
2023/08/19 06:58:28;;;;;;;16.50;9.40;;;;;;;;;;4953377;28;20483;-58
2023/08/19 07:00:59;;;;;;;18.20;8.77;;;;;;;;;;4952034;28;20027;-57
2023/08/19 07:03:27;;;;;;;16.80;9.07;;;;;;;;;;4952216;28;20484;-58
2023/08/19 07:05:53;;;;;;;17.05;9.00;;;;;;;;;;4951766;28;20031;-58
2023/08/19 07:08:20;;;;;;;16.27;8.95;;;;;;;;;;4965657;28;20031;-58
2023/08/19 07:10:46;;;;;;;17.50;10.30;;;;;;;;;;4971411;28;20031;-58
2023/08/19 07:13:12;;;;;;;20.05;9.40;;;;;;;;;;4971205;28;20104;-59
2023/08/19 07:15:41;;;;;;;19.25;9.20;;;;;;;;;;4970641;28;20030;-56
2023/08/19 07:18:08;;;;;;;17.55;9.57;;;;;;;;;;4960428;28;20030;-56
2023/08/19 07:20:34;;;;;;;20.40;9.80;;;;;;;;;;4952772;28;20031;-59
2023/08/19 07:23:01;;;;;;;19.42;9.35;;;;;;;;;;4951735;28;20035;-59
2023/08/19 07:25:28;;;;;;;16.35;9.00;;;;;;;;;;4951486;28;20027;-58
2023/08/19 07:27:54;;;;;;;16.90;9.07;;;;;;;;;;4951849;28;20109;-59
2023/08/19 07:30:20;;;;;;;19.75;9.43;;;;;;;;;;4952422;28;20038;-58
2023/08/19 07:32:46;;;;;;;16.70;9.20;;;;;;;;;;4951636;28;20027;-59
2023/08/19 07:35:12;;;;;;;15.68;9.00;;;;;;;;;;4951230;28;20526;-59
2023/08/19 07:37:38;;;;;;;16.67;9.15;;;;;;;;;;4951741;28;20028;-58
2023/08/19 07:40:06;;;;;;;17.42;9.43;;;;;;;;;;4951650;28;20019;-58
2023/08/19 07:42:32;;;;;;;16.20;9.93;;;;;;;;;;4951660;28;20031;-51
2023/08/19 07:44:58;;;;;;;16.13;9.70;;;;;;;;;;4951203;28;20149;-50
2023/08/19 07:47:24;;;;;;;15.77;9.60;;;;;;;;;;4950363;28;20071;-52
2023/08/19 07:49:50;;;;;;;17.15;9.52;;;;;;;;;;4955640;28;20039;-54
2023/08/19 07:52:16;;;;;;;16.08;9.75;;;;;;;;;;5016780;28;20037;-50
2023/08/19 07:54:42;;;;;;;17.33;10.77;;;;;;;;;;5054033;28;20029;-48
2023/08/19 07:57:08;;;;;;;17.30;9.95;;;;;;;;;;5053094;28;20036;-51
2023/08/19 07:59:34;;;;;;;16.75;9.80;;;;;;;;;;5011857;28;20019;-48
2023/08/19 08:02:00;;;;;;;16.77;9.25;;;;;;;;;;4970597;28;20439;-53
2023/08/19 08:04:26;;;;;;;16.77;9.90;;;;;;;;;;4970161;28;20104;-48
2023/08/19 08:06:52;;;;;;;17.02;9.68;;;;;;;;;;4970568;28;20027;-52
2023/08/19 08:09:25;;;;;;;17.23;10.23;;;;;;;;;;5088778;27;19919;-54
2023/08/19 08:11:52;;;;;;;16.65;9.75;;;;;;;;;;5087059;28;20028;-51
2023/08/19 08:14:18;;;;;;;18.42;9.70;;;;;;;;;;5088348;28;20027;-47
2023/08/19 08:16:44;;;;;;;16.63;10.13;;;;;;;;;;5088672;28;20455;-50
2023/08/19 08:19:10;;;;;;;16.50;9.82;;;;;;;;;;5088315;28;20021;-52
2023/08/19 08:21:36;;;;;;;16.52;9.63;;;;;;;;;;5088440;28;20116;-51
2023/08/19 08:24:03;;;;;;;19.48;10.23;;;;;;;;;;5079586;28;20117;-54
2023/08/19 08:26:29;;;;;;;18.33;10.35;;;;;;;;;;5066819;28;20043;-52
2023/08/19 08:28:55;;;;;;;16.15;10.27;;;;;;;;;;5068086;28;20029;-50
2023/08/19 08:31:21;;;;;;;16.80;10.23;;;;;;;;;;5068090;28;20510;-53
2023/08/19 08:33:47;;;;;;;16.20;10.25;;;;;;;;;;5067583;28;20029;-54
2023/08/19 08:36:13;;;;;;;17.95;10.30;;;;;;;;;;5065875;28;20025;-64
2023/08/19 08:38:39;;;;;;;17.95;10.40;;;;;;;;;;5067383;28;20039;-64
2023/08/19 08:41:07;;;;;;;17.10;10.40;;;;;;;;;;5075645;28;20025;-65
2023/08/19 08:43:33;;;;;;;;;;;;;;;;;;5087394;28;20029;-65
2023/08/19 08:46:00;;;;;;;17.20;11.10;;;;;;;;;;5087729;28;19911;-64
2023/08/19 08:48:27;;;;;;;19.25;11.05;;;;;;;;;;5087959;28;20024;-65
2023/08/19 08:50:55;;;;;;;16.77;10.83;;;;;;;;;;5088138;28;20028;-64
2023/08/19 08:53:21;;;;;;;;;;;;;;;;;;5087030;28;20635;-63
2023/08/19 08:55:47;;;;;;;19.27;10.85;;;;;;;;;;5087773;28;19995;-57
2023/08/19 08:58:13;;;;;;;18.35;10.27;;;;;;;;;;5087917;28;20040;-59
2023/08/19 09:00:40;;;;;;;16.85;10.35;;;;;;;;;;5087686;28;20032;-57
2023/08/19 09:03:08;;;;;;;16.95;11.25;;;;;;;;;;5086203;28;20052;-59
2023/08/19 09:05:36;;;;;;;19.00;10.70;;;;;;;;;;5066983;28;20504;-56
2023/08/19 09:08:03;;;;;;;16.33;9.85;;;;;;;;;;5076429;28;20396;-59
2023/08/19 09:10:31;;;;;;;16.20;10.10;;;;;;;;;;5087556;28;20063;-58
2023/08/19 09:13:01;;;;;;;16.50;10.48;;;;;;;;;;5087841;28;20024;-61
2023/08/19 09:15:32;;;;;;;17.08;10.80;;;;;;;;;;5087394;28;20035;-58
2023/08/19 09:17:58;;;;;;;18.23;10.90;;;;;;;;;;5090749;28;20019;-60
2023/08/19 09:20:25;;;;;;;17.88;11.10;;;;;;;;;;5096276;28;20031;-58
2023/08/19 09:22:51;;;;;;;16.23;10.57;;;;;;;;;;5093923;28;20035;-60
2023/08/19 09:25:18;;;;;;;16.95;10.27;;;;;;;;;;5072964;28;20044;-58
2023/08/19 09:27:44;;;;;;;16.60;10.35;;;;;;;;;;5072253;28;20032;-60
2023/08/19 09:30:14;;;;;;;18.88;11.15;;;;;;;;;;5073603;28;20602;-57
2023/08/19 09:32:41;;;;;;;17.08;10.77;;;;;;;;;;5072255;28;20020;-58
2023/08/19 09:35:14;;;;;;;15.80;10.70;;;;;;;;;;5070833;28;20035;-58
2023/08/19 09:37:41;;;;;;;16.55;11.20;;;;;;;;;;5072485;28;20036;-57
2023/08/19 09:40:08;;;;;;;18.08;10.52;;;;;;;;;;5072768;28;20405;-59
2023/08/19 09:42:37;;;;;;;18.20;10.40;;;;;;;;;;5073156;28;20032;-58
2023/08/19 09:45:07;;;;;;;19.17;11.20;;;;;;;;;;5089596;28;20040;-60
2023/08/19 09:47:45;;;;;;;17.80;10.88;;;;;;;;;;5092864;28;20032;-60
2023/08/19 09:50:11;;;;;;;19.80;10.98;;;;;;;;;;5093277;28;20023;-55
2023/08/19 09:52:37;;;;;;;20.83;10.95;;;;;;;;;;5093542;28;20023;-60
2023/08/19 09:55:03;;;;;;;17.00;11.02;;;;;;;;;;5092728;28;20024;-59
2023/08/19 09:57:33;;;;;;;17.60;10.70;;;;;;;;;;5093180;28;20024;-57
2023/08/19 09:59:59;;;;;;;18.73;11.40;;;;;;;;;;5093603;28;20098;-57
2023/08/19 10:02:25;;;;;;;18.92;10.95;;;;;;;;;;5093435;28;20056;-62
2023/08/19 10:04:51;;;;;;;17.08;10.95;;;;;;;;;;5091622;28;20024;-60
2023/08/19 10:07:17;;;;;;;18.80;11.07;;;;;;;;;;5091135;28;20519;-58
2023/08/19 10:09:43;;;;;;;18.83;11.48;;;;;;;;;;5072914;28;20385;-64
2023/08/19 10:12:11;;;;;;;17.98;11.52;;;;;;;;;;5071580;28;20024;-61
2023/08/19 10:14:39;;;;;;;18.08;11.57;;;;;;;;;;5072809;28;20104;-63
2023/08/19 10:17:06;;;;;;;17.92;11.38;;;;;;;;;;5072567;28;20029;-60
2023/08/19 10:19:36;;;;;;;16.35;11.02;;;;;;;;;;5089332;28;20027;-62
2023/08/19 10:22:03;;;;;;;22.85;11.48;;;;;;;;;;4733741;28;10000141;-62
2023/08/19 10:24:29;;;;;;;16.80;11.30;;;;;;;;;;5080665;28;20024;-61
2023/08/19 10:26:55;;;;;;;17.50;11.43;;;;;;;;;;5078984;28;20025;-61
2023/08/19 10:29:21;;;;;;;25.80;11.70;;;;;;;;;;5069520;28;20035;-61
2023/08/19 10:31:47;;;;;;;19.38;11.48;;;;;;;;;;5084071;28;20028;-59
2023/08/19 10:34:19;;;;;;;17.95;10.98;;;;;;;;;;5089286;28;20024;-61
2023/08/19 10:37:04;;;;;;;21.50;11.00;;;;;;;;;;5074597;28;20040;-58
2023/08/19 10:39:31;;;;;;;21.42;10.93;;;;;;;;;;5068844;28;20105;-60
2023/08/19 10:41:57;;;;;;;18.83;10.85;;;;;;;;;;5077200;28;20027;-61
2023/08/19 10:44:31;;;;;;;20.75;11.63;;;;;;;;;;5079256;28;20396;-60
2023/08/19 10:47:08;;;;;;;21.27;11.98;;;;;;;;;;5078527;28;20029;-60
2023/08/19 10:49:34;;;;;;;17.17;11.23;;;;;;;;;;5077534;28;20055;-59
2023/08/19 10:52:02;;;;;;;17.70;11.15;;;;;;;;;;5069002;28;20036;-62
2023/08/19 10:54:38;;;;;;;17.77;11.35;;;;;;;;;;5073777;28;20024;-60
2023/08/19 10:57:13;;;;;;;18.38;11.70;;;;;;;;;;5074790;28;20377;-58
2023/08/19 10:59:46;;;;;;;19.30;11.30;;;;;;;;;;5068843;28;20136;-60
2023/08/19 11:02:13;;;;;;;17.15;11.60;;;;;;;;;;5068914;28;20396;-59
2023/08/19 11:04:43;;;;;;;18.83;12.25;;;;;;;;;;5069199;28;20032;-58
2023/08/19 11:07:09;;;;;;;18.27;11.65;;;;;;;;;;5069236;28;20025;-58
2023/08/19 11:09:35;;;;;;;17.40;11.25;;;;;;;;;;5076684;28;20088;-61
2023/08/19 11:12:02;;;;;;;17.80;11.27;;;;;;;;;;5088884;28;20020;-63
2023/08/19 11:14:28;;;;;;;19.58;11.63;;;;;;;;;;5081512;28;20109;-61
2023/08/19 11:16:55;;;;;;;17.98;11.35;;;;;;;;;;5076090;28;20036;-61
2023/08/19 11:19:22;;;;;;;22.42;12.30;;;;;;;;;;5078908;28;20032;-65
2023/08/19 11:21:48;;;;;;;17.85;11.95;;;;;;;;;;5079343;28;20118;-60
2023/08/19 11:24:14;;;;;;;18.33;11.60;;;;;;;;;;5076290;28;20040;-58
2023/08/19 11:26:41;;;;;;;18.20;12.57;;;;;;;;;;5075773;28;20141;-61
2023/08/19 11:29:07;;;;;;;18.70;11.95;;;;;;;;;;5075844;28;20058;-60
2023/08/19 11:31:37;;;;;;;21.15;13.20;;;;;;;;;;5071425;28;20036;-58
2023/08/19 11:34:10;;;;;;;18.08;12.32;;;;;;;;;;5068239;28;20028;-58
2023/08/19 11:36:36;;;;;;;19.23;12.15;;;;;;;;;;5069423;28;20048;-61
2023/08/19 11:39:06;;;;;;;18.25;12.10;;;;;;;;;;5076857;28;20107;-60
2023/08/19 11:41:32;;;;;;;22.77;12.18;;;;;;;;;;5077552;28;20445;-59
2023/08/19 11:43:59;;;;;;;21.65;12.50;;;;;;;;;;5077069;28;20017;-61
2023/08/19 11:46:32;;;;;;;19.98;12.20;;;;;;;;;;5075925;28;20035;-60
2023/08/19 11:49:05;;;;;;;20.40;12.68;;;;;;;;;;5068045;28;20029;-61
2023/08/19 11:51:31;;;;;;;21.88;13.38;;;;;;;;;;5070158;28;20536;-60
2023/08/19 11:54:08;;;;;;;19.10;13.57;;;;;;;;;;5067594;28;20028;-60
2023/08/19 11:56:50;;;;;;;18.35;13.05;;;;;;;;;;5089086;23;20041;-56
2023/08/19 11:59:17;;;;;;;17.73;12.32;;;;;;;;;;5062328;28;20033;-55
2023/08/19 12:01:46;;;;;;;17.95;12.45;;;;;;;;;;5048249;28;20036;-57
2023/08/19 12:04:15;;;;;;;20.50;12.65;;;;;;;;;;5066536;28;20067;-60
2023/08/19 12:06:41;;;;;;;20.92;13.30;;;;;;;;;;5074700;28;20111;-60
2023/08/19 12:09:07;;;;;;;23.65;13.50;;;;;;;;;;5087036;28;20028;-57
2023/08/19 12:11:35;;;;;;;18.33;12.77;;;;;;;;;;5087078;28;20094;-52
2023/08/19 12:14:01;;;;;;;20.35;13.00;;;;;;;;;;5086651;28;20044;-58
2023/08/19 12:16:27;;;;;;;22.25;12.90;;;;;;;;;;5086922;28;20024;-58
2023/08/19 12:18:53;;;;;;;21.25;12.93;;;;;;;;;;5086689;28;20051;-58
2023/08/19 12:21:19;;;;;;;18.50;12.90;;;;;;;;;;5087497;28;20040;-56
2023/08/19 12:23:45;;;;;;;18.70;12.50;;;;;;;;;;5087129;28;20100;-57
2023/08/19 12:26:11;;;;;;;18.85;12.68;;;;;;;;;;5068277;28;20036;-57
2023/08/19 12:28:37;;;;;;;19.08;12.85;;;;;;;;;;5087024;28;20517;-58
2023/08/19 12:31:03;;;;;;;19.20;12.57;;;;;;;;;;5088374;28;20069;-59
2023/08/19 12:33:29;;;;;;;21.42;12.98;;;;;;;;;;5088767;28;20027;-57
2023/08/19 12:35:55;;;;;;;18.35;12.68;;;;;;;;;;5089189;28;20025;-59
2023/08/19 12:38:21;;;;;;;18.70;12.00;;;;;;;;;;5069874;28;20028;-61
2023/08/19 12:40:48;;;;;;;19.55;12.82;;;;;;;;;;5089972;28;20024;-61
2023/08/19 12:43:14;;;;;;;23.73;13.20;;;;;;;;;;5090004;28;20040;-54
2023/08/19 12:45:41;;;;;;;26.92;13.82;;;;;;;;;;5089346;28;20567;-59
2023/08/19 12:48:08;;;;;;;19.17;12.90;;;;;;;;;;5089690;28;20032;-60
2023/08/19 12:50:34;;;;;;;20.38;12.32;;;;;;;;;;5089786;28;20501;-62
2023/08/19 12:53:00;;;;;;;20.48;13.48;;;;;;;;;;5071118;28;20114;-56
2023/08/19 12:55:27;;;;;;;19.90;12.55;;;;;;;;;;5091983;28;20399;-59
2023/08/19 12:57:56;;;;;;;21.38;12.90;;;;;;;;;;5093169;28;20060;-62
2023/08/19 13:00:31;;;;;;;22.63;13.15;;;;;;;;;;5093550;28;20056;-59
2023/08/19 13:02:58;;;;;;;19.77;12.57;;;;;;;;;;5093278;28;20103;-58
2023/08/19 13:05:24;;;;;;;21.08;13.30;;;;;;;;;;5091112;28;20039;-59
2023/08/19 13:07:50;;;;;;;22.13;14.77;;;;;;;;;;4739003;28;9999743;-57
2023/08/19 13:10:16;;;;;;;23.08;17.60;;;;;;;;;;5089829;28;20127;-60
2023/08/19 13:12:42;;;;;;;20.35;17.45;;;;;;;;;;5072349;28;20069;-58
2023/08/19 13:15:09;;;;;;;26.27;17.85;;;;;;;;;;5068580;28;20032;-60
2023/08/19 13:17:36;;;;;;;26.77;21.02;;;;;;;;;;5075503;28;20061;-60
2023/08/19 13:20:05;;;;;;;26.17;19.35;;;;;;;;;;5090190;28;20024;-59
2023/08/19 13:22:31;;;;;;;24.42;16.90;;;;;;;;;;5088702;28;20024;-59
2023/08/19 13:24:58;;;;;;;22.48;16.30;;;;;;;;;;5087587;28;20114;-58
2023/08/19 13:27:24;;;;;;;22.48;16.52;;;;;;;;;;5090153;28;20131;-60
2023/08/19 13:29:50;;;;;;;24.10;16.40;;;;;;;;;;5089126;28;20024;-60
2023/08/19 13:32:16;;;;;;;23.17;15.82;;;;;;;;;;5071434;28;20108;-60
2023/08/19 13:34:43;;;;;;;27.00;16.58;;;;;;;;;;5071617;28;20032;-55
2023/08/19 13:37:10;;;;;;;22.15;15.75;;;;;;;;;;5073041;28;20044;-57
2023/08/19 13:39:36;;;;;;;21.52;15.30;;;;;;;;;;5072127;28;20028;-57
2023/08/19 13:42:02;;;;;;;21.45;15.40;;;;;;;;;;5071858;28;20484;-59
2023/08/19 13:44:29;;;;;;;19.90;15.20;;;;;;;;;;5071791;28;20027;-55
2023/08/19 13:46:55;;;;;;;29.65;15.85;;;;;;;;;;5072211;28;20024;-57
2023/08/19 13:49:21;;;;;;;20.13;14.95;;;;;;;;;;5054182;28;20408;-55
2023/08/19 13:51:48;;;;;;;24.20;15.63;;;;;;;;;;5071653;28;20024;-56
2023/08/19 13:54:14;;;;;;;20.80;14.65;;;;;;;;;;5091507;28;20034;-60
2023/08/19 13:56:43;;;;;;;24.08;14.45;;;;;;;;;;5094900;28;20103;-61
2023/08/19 13:59:09;;;;;;;21.85;13.90;;;;;;;;;;5076964;28;20170;-60
2023/08/19 14:01:36;;;;;;;21.38;14.55;;;;;;;;;;4722920;28;9999684;-57
2023/08/19 14:04:02;;;;;;;21.05;14.30;;;;;;;;;;5088752;28;20043;-59
2023/08/19 14:06:28;;;;;;;27.38;14.27;;;;;;;;;;5087984;28;20054;-58
2023/08/19 14:08:54;;;;;;;20.60;14.02;;;;;;;;;;5069721;28;20472;-54
2023/08/19 14:11:20;;;;;;;21.25;13.07;;;;;;;;;;5077915;28;20021;-58
2023/08/19 14:13:46;;;;;;;21.05;13.73;;;;;;;;;;5068764;28;20074;-57
2023/08/19 14:16:12;;;;;;;21.58;14.38;;;;;;;;;;5068444;28;20039;-56
2023/08/19 14:18:38;;;;;;;20.48;13.98;;;;;;;;;;5077981;28;20070;-57